sensor_id;sensor_type;location;lat;lon;timestamp;temperature;humidity
42037;DHT22;30340;52.004;5.908;2023-02-28T00:01:10;3.40;73.80
42037;DHT22;30340;52.004;5.908;2023-02-28T00:03:36;3.40;74.40
42037;DHT22;30340;52.004;5.908;2023-02-28T00:06:06;3.40;73.70
42037;DHT22;30340;52.004;5.908;2023-02-28T00:08:32;3.50;73.80
42037;DHT22;30340;52.004;5.908;2023-02-28T00:11:05;3.50;73.80
42037;DHT22;30340;52.004;5.908;2023-02-28T00:13:34;3.60;73.80
42037;DHT22;30340;52.004;5.908;2023-02-28T00:16:02;3.60;73.70
42037;DHT22;30340;52.004;5.908;2023-02-28T00:18:28;3.70;73.70
42037;DHT22;30340;52.004;5.908;2023-02-28T00:20:53;3.60;73.70
42037;DHT22;30340;52.004;5.908;2023-02-28T00:23:19;3.60;73.70
42037;DHT22;30340;52.004;5.908;2023-02-28T00:25:44;3.60;73.70
42037;DHT22;30340;52.004;5.908;2023-02-28T00:28:10;3.60;73.70
42037;DHT22;30340;52.004;5.908;2023-02-28T00:30:36;3.70;73.80
42037;DHT22;30340;52.004;5.908;2023-02-28T00:33:01;3.70;73.80
42037;DHT22;30340;52.004;5.908;2023-02-28T00:35:27;3.70;73.70
42037;DHT22;30340;52.004;5.908;2023-02-28T00:37:52;3.70;73.80
42037;DHT22;30340;52.004;5.908;2023-02-28T00:40:18;3.70;73.70
42037;DHT22;30340;52.004;5.908;2023-02-28T00:42:43;3.80;73.80
42037;DHT22;30340;52.004;5.908;2023-02-28T00:45:09;3.80;73.70
42037;DHT22;30340;52.004;5.908;2023-02-28T00:47:35;3.80;73.70
42037;DHT22;30340;52.004;5.908;2023-02-28T00:50:00;3.90;73.70
42037;DHT22;30340;52.004;5.908;2023-02-28T00:52:26;3.90;73.70
42037;DHT22;30340;52.004;5.908;2023-02-28T00:54:52;3.90;73.70
42037;DHT22;30340;52.004;5.908;2023-02-28T00:57:17;3.90;73.60
42037;DHT22;30340;52.004;5.908;2023-02-28T00:59:43;3.90;73.70
42037;DHT22;30340;52.004;5.908;2023-02-28T01:02:08;4.00;73.70
42037;DHT22;30340;52.004;5.908;2023-02-28T01:04:34;4.00;73.70
42037;DHT22;30340;52.004;5.908;2023-02-28T01:07:00;4.00;73.50
42037;DHT22;30340;52.004;5.908;2023-02-28T01:09:25;4.00;73.50
42037;DHT22;30340;52.004;5.908;2023-02-28T01:11:51;3.90;73.50
42037;DHT22;30340;52.004;5.908;2023-02-28T01:14:17;3.90;73.60
42037;DHT22;30340;52.004;5.908;2023-02-28T01:16:43;3.90;73.60
42037;DHT22;30340;52.004;5.908;2023-02-28T01:19:09;3.90;73.60
42037;DHT22;30340;52.004;5.908;2023-02-28T01:21:34;3.80;73.70
42037;DHT22;30340;52.004;5.908;2023-02-28T01:24:01;3.80;73.80
42037;DHT22;30340;52.004;5.908;2023-02-28T01:26:26;3.80;73.80
42037;DHT22;30340;52.004;5.908;2023-02-28T01:28:53;3.80;73.90
42037;DHT22;30340;52.004;5.908;2023-02-28T01:31:19;3.80;74.00
42037;DHT22;30340;52.004;5.908;2023-02-28T01:33:45;3.80;74.00
42037;DHT22;30340;52.004;5.908;2023-02-28T01:36:17;3.80;74.10
42037;DHT22;30340;52.004;5.908;2023-02-28T01:38:43;3.80;74.10
42037;DHT22;30340;52.004;5.908;2023-02-28T01:41:17;3.80;74.20
42037;DHT22;30340;52.004;5.908;2023-02-28T01:46:09;3.80;74.10
42037;DHT22;30340;52.004;5.908;2023-02-28T01:48:41;3.80;74.10
42037;DHT22;30340;52.004;5.908;2023-02-28T01:51:17;3.90;74.10
42037;DHT22;30340;52.004;5.908;2023-02-28T01:53:47;3.90;74.10
42037;DHT22;30340;52.004;5.908;2023-02-28T01:56:17;3.90;74.00
42037;DHT22;30340;52.004;5.908;2023-02-28T01:58:51;3.90;74.10
42037;DHT22;30340;52.004;5.908;2023-02-28T02:01:18;3.90;74.00
42037;DHT22;30340;52.004;5.908;2023-02-28T02:03:52;4.00;74.00
42037;DHT22;30340;52.004;5.908;2023-02-28T02:06:25;4.00;74.00
42037;DHT22;30340;52.004;5.908;2023-02-28T02:08:53;4.00;74.00
42037;DHT22;30340;52.004;5.908;2023-02-28T02:11:20;3.90;74.10
42037;DHT22;30340;52.004;5.908;2023-02-28T02:28:56;4.00;74.40
42037;DHT22;30340;52.004;5.908;2023-02-28T02:37:24;3.90;74.40
42037;DHT22;30340;52.004;5.908;2023-02-28T02:42:39;3.90;74.60
42037;DHT22;30340;52.004;5.908;2023-02-28T02:45:23;3.80;74.50
42037;DHT22;30340;52.004;5.908;2023-02-28T02:47:51;3.80;74.50
42037;DHT22;30340;52.004;5.908;2023-02-28T02:50:22;3.80;74.30
42037;DHT22;30340;52.004;5.908;2023-02-28T02:52:52;3.80;73.90
42037;DHT22;30340;52.004;5.908;2023-02-28T02:55:20;3.80;74.10
42037;DHT22;30340;52.004;5.908;2023-02-28T02:57:57;3.80;74.10
42037;DHT22;30340;52.004;5.908;2023-02-28T03:00:29;3.80;73.90
42037;DHT22;30340;52.004;5.908;2023-02-28T03:02:56;3.80;73.90
42037;DHT22;30340;52.004;5.908;2023-02-28T03:05:44;3.80;73.80
42037;DHT22;30340;52.004;5.908;2023-02-28T03:08:11;3.80;73.50
42037;DHT22;30340;52.004;5.908;2023-02-28T03:10:39;3.80;73.70
42037;DHT22;30340;52.004;5.908;2023-02-28T03:13:52;3.80;73.60
42037;DHT22;30340;52.004;5.908;2023-02-28T03:19:02;3.80;73.60
42037;DHT22;30340;52.004;5.908;2023-02-28T03:24:18;3.80;73.30
42037;DHT22;30340;52.004;5.908;2023-02-28T03:26:52;3.80;73.20
42037;DHT22;30340;52.004;5.908;2023-02-28T03:34:34;3.80;73.00
42037;DHT22;30340;52.004;5.908;2023-02-28T03:37:06;3.80;73.10
42037;DHT22;30340;52.004;5.908;2023-02-28T03:39:46;3.80;73.10
42037;DHT22;30340;52.004;5.908;2023-02-28T03:42:16;3.90;73.00
42037;DHT22;30340;52.004;5.908;2023-02-28T03:44:47;3.90;72.90
42037;DHT22;30340;52.004;5.908;2023-02-28T03:47:32;3.90;73.10
42037;DHT22;30340;52.004;5.908;2023-02-28T03:50:15;4.00;72.90
42037;DHT22;30340;52.004;5.908;2023-02-28T03:52:48;4.10;72.80
42037;DHT22;30340;52.004;5.908;2023-02-28T03:55:15;4.10;72.70
42037;DHT22;30340;52.004;5.908;2023-02-28T04:00:48;4.20;72.50
42037;DHT22;30340;52.004;5.908;2023-02-28T04:03:15;4.20;72.50
42037;DHT22;30340;52.004;5.908;2023-02-28T04:05:50;4.20;72.30
42037;DHT22;30340;52.004;5.908;2023-02-28T04:08:16;4.20;72.40
42037;DHT22;30340;52.004;5.908;2023-02-28T04:10:43;4.10;72.20
42037;DHT22;30340;52.004;5.908;2023-02-28T04:13:10;4.20;72.30
42037;DHT22;30340;52.004;5.908;2023-02-28T04:15:36;4.10;72.10
42037;DHT22;30340;52.004;5.908;2023-02-28T04:18:02;4.10;72.10
42037;DHT22;30340;52.004;5.908;2023-02-28T04:20:27;4.10;72.10
42037;DHT22;30340;52.004;5.908;2023-02-28T04:22:53;4.10;72.10
42037;DHT22;30340;52.004;5.908;2023-02-28T04:25:18;4.10;72.20
42037;DHT22;30340;52.004;5.908;2023-02-28T04:27:44;4.10;72.50
42037;DHT22;30340;52.004;5.908;2023-02-28T04:30:11;4.00;72.30
42037;DHT22;30340;52.004;5.908;2023-02-28T04:32:36;4.00;72.30
42037;DHT22;30340;52.004;5.908;2023-02-28T04:35:02;4.00;72.40
42037;DHT22;30340;52.004;5.908;2023-02-28T04:37:28;3.90;72.40
42037;DHT22;30340;52.004;5.908;2023-02-28T04:39:54;3.90;72.40
42037;DHT22;30340;52.004;5.908;2023-02-28T04:42:20;3.90;72.40
42037;DHT22;30340;52.004;5.908;2023-02-28T04:44:45;3.90;72.50
42037;DHT22;30340;52.004;5.908;2023-02-28T04:47:12;3.80;72.50
42037;DHT22;30340;52.004;5.908;2023-02-28T04:49:38;3.80;72.60
42037;DHT22;30340;52.004;5.908;2023-02-28T04:52:04;3.70;72.60
42037;DHT22;30340;52.004;5.908;2023-02-28T04:54:29;3.70;72.70
42037;DHT22;30340;52.004;5.908;2023-02-28T04:56:55;3.70;72.80
42037;DHT22;30340;52.004;5.908;2023-02-28T04:59:21;3.60;72.80
42037;DHT22;30340;52.004;5.908;2023-02-28T05:01:47;3.60;72.90
42037;DHT22;30340;52.004;5.908;2023-02-28T05:04:14;3.60;73.70
42037;DHT22;30340;52.004;5.908;2023-02-28T05:06:39;3.60;72.90
42037;DHT22;30340;52.004;5.908;2023-02-28T05:09:05;3.60;73.00
42037;DHT22;30340;52.004;5.908;2023-02-28T05:11:33;3.60;73.10
42037;DHT22;30340;52.004;5.908;2023-02-28T05:14:03;3.60;73.00
42037;DHT22;30340;52.004;5.908;2023-02-28T05:16:29;3.60;73.10
42037;DHT22;30340;52.004;5.908;2023-02-28T05:18:54;3.60;73.10
42037;DHT22;30340;52.004;5.908;2023-02-28T05:21:33;3.60;73.10
42037;DHT22;30340;52.004;5.908;2023-02-28T05:24:02;3.60;73.10
42037;DHT22;30340;52.004;5.908;2023-02-28T05:26:28;3.70;73.20
42037;DHT22;30340;52.004;5.908;2023-02-28T05:28:54;3.70;73.00
42037;DHT22;30340;52.004;5.908;2023-02-28T05:31:20;3.70;73.00
42037;DHT22;30340;52.004;5.908;2023-02-28T05:33:46;3.70;73.40
42037;DHT22;30340;52.004;5.908;2023-02-28T05:36:12;3.70;73.20
42037;DHT22;30340;52.004;5.908;2023-02-28T05:38:37;3.70;73.20
42037;DHT22;30340;52.004;5.908;2023-02-28T05:41:09;3.70;73.20
42037;DHT22;30340;52.004;5.908;2023-02-28T05:43:36;3.60;73.20
42037;DHT22;30340;52.004;5.908;2023-02-28T05:46:04;3.70;73.30
42037;DHT22;30340;52.004;5.908;2023-02-28T05:48:29;3.60;73.30
42037;DHT22;30340;52.004;5.908;2023-02-28T05:50:57;3.70;73.30
42037;DHT22;30340;52.004;5.908;2023-02-28T05:53:23;3.60;73.20
42037;DHT22;30340;52.004;5.908;2023-02-28T05:55:48;3.60;73.30
42037;DHT22;30340;52.004;5.908;2023-02-28T05:58:14;3.70;73.40
42037;DHT22;30340;52.004;5.908;2023-02-28T06:00:39;3.70;73.40
42037;DHT22;30340;52.004;5.908;2023-02-28T06:03:05;3.70;73.30
42037;DHT22;30340;52.004;5.908;2023-02-28T06:05:30;3.70;73.50
42037;DHT22;30340;52.004;5.908;2023-02-28T06:07:56;3.70;73.50
42037;DHT22;30340;52.004;5.908;2023-02-28T06:10:22;3.70;73.50
42037;DHT22;30340;52.004;5.908;2023-02-28T06:12:47;3.70;73.60
42037;DHT22;30340;52.004;5.908;2023-02-28T06:15:14;3.70;73.60
42037;DHT22;30340;52.004;5.908;2023-02-28T06:17:41;3.80;73.60
42037;DHT22;30340;52.004;5.908;2023-02-28T06:20:08;3.80;73.60
42037;DHT22;30340;52.004;5.908;2023-02-28T06:22:35;3.80;73.50
42037;DHT22;30340;52.004;5.908;2023-02-28T06:25:01;3.70;73.40
42037;DHT22;30340;52.004;5.908;2023-02-28T06:27:26;3.60;73.50
42037;DHT22;30340;52.004;5.908;2023-02-28T06:29:54;3.60;73.70
42037;DHT22;30340;52.004;5.908;2023-02-28T06:32:21;3.60;73.90
42037;DHT22;30340;52.004;5.908;2023-02-28T06:34:47;3.80;73.90
42037;DHT22;30340;52.004;5.908;2023-02-28T06:37:12;3.80;73.80
42037;DHT22;30340;52.004;5.908;2023-02-28T06:39:38;3.90;73.70
42037;DHT22;30340;52.004;5.908;2023-02-28T06:42:04;3.90;73.50
42037;DHT22;30340;52.004;5.908;2023-02-28T06:44:30;3.80;73.20
42037;DHT22;30340;52.004;5.908;2023-02-28T06:47:05;3.80;73.30
42037;DHT22;30340;52.004;5.908;2023-02-28T06:49:32;3.90;73.30
42037;DHT22;30340;52.004;5.908;2023-02-28T06:51:58;4.00;73.30
42037;DHT22;30340;52.004;5.908;2023-02-28T06:54:24;4.00;72.60
42037;DHT22;30340;52.004;5.908;2023-02-28T06:56:50;4.00;72.70
42037;DHT22;30340;52.004;5.908;2023-02-28T06:59:16;4.00;71.80
42037;DHT22;30340;52.004;5.908;2023-02-28T07:01:42;3.90;72.10
42037;DHT22;30340;52.004;5.908;2023-02-28T07:04:08;3.90;72.30
42037;DHT22;30340;52.004;5.908;2023-02-28T07:06:34;4.00;72.00
42037;DHT22;30340;52.004;5.908;2023-02-28T07:08:59;4.00;72.20
42037;DHT22;30340;52.004;5.908;2023-02-28T07:11:26;4.00;71.80
42037;DHT22;30340;52.004;5.908;2023-02-28T07:13:54;3.90;71.80
42037;DHT22;30340;52.004;5.908;2023-02-28T07:16:20;4.00;71.70
42037;DHT22;30340;52.004;5.908;2023-02-28T07:18:46;4.00;71.50
42037;DHT22;30340;52.004;5.908;2023-02-28T07:21:11;4.00;71.60
42037;DHT22;30340;52.004;5.908;2023-02-28T07:23:38;4.10;71.20
42037;DHT22;30340;52.004;5.908;2023-02-28T07:26:06;4.10;71.20
42037;DHT22;30340;52.004;5.908;2023-02-28T07:28:32;4.20;71.30
42037;DHT22;30340;52.004;5.908;2023-02-28T07:31:03;4.20;71.20
42037;DHT22;30340;52.004;5.908;2023-02-28T07:33:29;4.20;70.80
42037;DHT22;30340;52.004;5.908;2023-02-28T07:36:00;4.20;70.80
42037;DHT22;30340;52.004;5.908;2023-02-28T07:38:26;4.10;70.70
42037;DHT22;30340;52.004;5.908;2023-02-28T07:40:52;4.20;70.50
42037;DHT22;30340;52.004;5.908;2023-02-28T07:43:17;4.10;70.40
42037;DHT22;30340;52.004;5.908;2023-02-28T07:45:43;4.10;70.30
42037;DHT22;30340;52.004;5.908;2023-02-28T07:48:09;4.10;70.20
42037;DHT22;30340;52.004;5.908;2023-02-28T07:50:35;4.20;70.00
42037;DHT22;30340;52.004;5.908;2023-02-28T07:53:00;4.20;69.40
42037;DHT22;30340;52.004;5.908;2023-02-28T07:55:26;4.20;69.50
42037;DHT22;30340;52.004;5.908;2023-02-28T07:57:52;4.10;69.20
42037;DHT22;30340;52.004;5.908;2023-02-28T08:00:18;4.20;68.40
42037;DHT22;30340;52.004;5.908;2023-02-28T08:02:43;4.20;69.10
42037;DHT22;30340;52.004;5.908;2023-02-28T08:05:09;4.30;69.30
42037;DHT22;30340;52.004;5.908;2023-02-28T08:07:35;4.30;68.80
42037;DHT22;30340;52.004;5.908;2023-02-28T08:10:01;4.20;68.10
42037;DHT22;30340;52.004;5.908;2023-02-28T08:12:26;4.20;68.20
42037;DHT22;30340;52.004;5.908;2023-02-28T08:14:52;4.20;67.60
42037;DHT22;30340;52.004;5.908;2023-02-28T08:17:17;4.30;67.50
42037;DHT22;30340;52.004;5.908;2023-02-28T08:19:45;4.30;67.20
42037;DHT22;30340;52.004;5.908;2023-02-28T08:22:11;4.40;66.80
42037;DHT22;30340;52.004;5.908;2023-02-28T08:24:37;4.40;66.40
42037;DHT22;30340;52.004;5.908;2023-02-28T08:27:02;4.50;66.80
42037;DHT22;30340;52.004;5.908;2023-02-28T08:29:28;4.50;65.80
42037;DHT22;30340;52.004;5.908;2023-02-28T08:31:55;4.50;64.90
42037;DHT22;30340;52.004;5.908;2023-02-28T08:34:21;4.60;66.10
42037;DHT22;30340;52.004;5.908;2023-02-28T08:36:48;4.70;65.20
42037;DHT22;30340;52.004;5.908;2023-02-28T08:39:13;4.60;64.10
42037;DHT22;30340;52.004;5.908;2023-02-28T08:41:39;4.70;62.50
42037;DHT22;30340;52.004;5.908;2023-02-28T08:44:05;4.60;62.20
42037;DHT22;30340;52.004;5.908;2023-02-28T08:46:30;4.60;62.20
42037;DHT22;30340;52.004;5.908;2023-02-28T08:48:56;4.60;62.10
42037;DHT22;30340;52.004;5.908;2023-02-28T08:51:25;4.60;62.20
42037;DHT22;30340;52.004;5.908;2023-02-28T08:53:57;4.60;61.50
42037;DHT22;30340;52.004;5.908;2023-02-28T08:56:23;4.60;61.30
42037;DHT22;30340;52.004;5.908;2023-02-28T08:58:49;4.60;60.70
42037;DHT22;30340;52.004;5.908;2023-02-28T09:01:27;4.60;61.60
42037;DHT22;30340;52.004;5.908;2023-02-28T09:03:54;4.50;56.80
42037;DHT22;30340;52.004;5.908;2023-02-28T09:06:21;4.50;59.60
42037;DHT22;30340;52.004;5.908;2023-02-28T09:08:47;4.50;59.70
42037;DHT22;30340;52.004;5.908;2023-02-28T09:11:13;4.60;59.80
42037;DHT22;30340;52.004;5.908;2023-02-28T09:13:39;4.60;60.10
42037;DHT22;30340;52.004;5.908;2023-02-28T09:16:08;4.60;58.90
42037;DHT22;30340;52.004;5.908;2023-02-28T09:18:36;4.60;58.80
42037;DHT22;30340;52.004;5.908;2023-02-28T09:21:05;4.60;58.10
42037;DHT22;30340;52.004;5.908;2023-02-28T09:23:31;4.70;57.00
42037;DHT22;30340;52.004;5.908;2023-02-28T09:25:56;4.70;59.20
42037;DHT22;30340;52.004;5.908;2023-02-28T09:28:22;4.80;59.00
42037;DHT22;30340;52.004;5.908;2023-02-28T09:30:50;4.80;54.70
42037;DHT22;30340;52.004;5.908;2023-02-28T09:33:16;4.70;55.30
42037;DHT22;30340;52.004;5.908;2023-02-28T09:35:42;4.70;56.00
42037;DHT22;30340;52.004;5.908;2023-02-28T09:38:09;4.80;56.30
42037;DHT22;30340;52.004;5.908;2023-02-28T09:40:37;4.80;54.10
42037;DHT22;30340;52.004;5.908;2023-02-28T09:43:05;4.80;54.60
42037;DHT22;30340;52.004;5.908;2023-02-28T09:45:36;4.70;54.40
42037;DHT22;30340;52.004;5.908;2023-02-28T09:48:14;4.80;54.10
42037;DHT22;30340;52.004;5.908;2023-02-28T09:50:45;4.80;55.50
42037;DHT22;30340;52.004;5.908;2023-02-28T09:53:27;4.90;55.10
42037;DHT22;30340;52.004;5.908;2023-02-28T09:55:58;5.00;55.10
42037;DHT22;30340;52.004;5.908;2023-02-28T09:58:42;5.00;54.90
42037;DHT22;30340;52.004;5.908;2023-02-28T10:01:37;5.00;55.20
42037;DHT22;30340;52.004;5.908;2023-02-28T10:06:52;5.10;54.60
42037;DHT22;30340;52.004;5.908;2023-02-28T10:09:29;5.20;54.60
42037;DHT22;30340;52.004;5.908;2023-02-28T10:12:00;5.20;55.50
42037;DHT22;30340;52.004;5.908;2023-02-28T10:14:29;5.20;55.60
42037;DHT22;30340;52.004;5.908;2023-02-28T10:16:58;5.40;55.60
42037;DHT22;30340;52.004;5.908;2023-02-28T10:24:48;5.30;55.40
42037;DHT22;30340;52.004;5.908;2023-02-28T10:27:18;5.40;54.20
42037;DHT22;30340;52.004;5.908;2023-02-28T10:29:46;5.50;55.30
42037;DHT22;30340;52.004;5.908;2023-02-28T10:32:38;5.50;53.20
42037;DHT22;30340;52.004;5.908;2023-02-28T10:35:25;5.40;53.20
42037;DHT22;30340;52.004;5.908;2023-02-28T10:37:55;5.30;52.60
42037;DHT22;30340;52.004;5.908;2023-02-28T10:45:29;5.60;54.30
42037;DHT22;30340;52.004;5.908;2023-02-28T10:48:06;5.60;54.20
42037;DHT22;30340;52.004;5.908;2023-02-28T10:53:30;5.70;54.60
42037;DHT22;30340;52.004;5.908;2023-02-28T10:59:00;6.00;53.70
42037;DHT22;30340;52.004;5.908;2023-02-28T11:01:36;6.00;53.50
42037;DHT22;30340;52.004;5.908;2023-02-28T11:04:17;6.00;54.70
42037;DHT22;30340;52.004;5.908;2023-02-28T11:06:43;6.00;55.30
42037;DHT22;30340;52.004;5.908;2023-02-28T11:09:20;6.10;53.80
42037;DHT22;30340;52.004;5.908;2023-02-28T11:11:49;6.00;52.50
42037;DHT22;30340;52.004;5.908;2023-02-28T11:14:22;6.00;52.60
42037;DHT22;30340;52.004;5.908;2023-02-28T11:16:48;5.80;53.40
42037;DHT22;30340;52.004;5.908;2023-02-28T11:19:27;5.90;53.70
42037;DHT22;30340;52.004;5.908;2023-02-28T11:22:02;5.80;53.00
42037;DHT22;30340;52.004;5.908;2023-02-28T11:24:34;5.80;53.20
42037;DHT22;30340;52.004;5.908;2023-02-28T11:27:00;6.00;53.70
42037;DHT22;30340;52.004;5.908;2023-02-28T11:29:33;6.00;51.20
42037;DHT22;30340;52.004;5.908;2023-02-28T11:32:23;5.80;52.50
42037;DHT22;30340;52.004;5.908;2023-02-28T11:37:38;5.80;50.50
42037;DHT22;30340;52.004;5.908;2023-02-28T11:43:25;5.70;52.30
42037;DHT22;30340;52.004;5.908;2023-02-28T11:46:00;6.00;53.20
42037;DHT22;30340;52.004;5.908;2023-02-28T11:48:58;6.00;51.50
42037;DHT22;30340;52.004;5.908;2023-02-28T11:51:33;6.00;50.50
42037;DHT22;30340;52.004;5.908;2023-02-28T12:01:45;6.20;52.30
42037;DHT22;30340;52.004;5.908;2023-02-28T12:07:26;6.40;52.70
42037;DHT22;30340;52.004;5.908;2023-02-28T12:09:58;6.50;52.00
42037;DHT22;30340;52.004;5.908;2023-02-28T12:12:46;6.60;51.30
42037;DHT22;30340;52.004;5.908;2023-02-28T12:15:32;6.60;52.20
42037;DHT22;30340;52.004;5.908;2023-02-28T12:20:59;6.70;51.30
42037;DHT22;30340;52.004;5.908;2023-02-28T12:28:43;7.00;48.80
42037;DHT22;30340;52.004;5.908;2023-02-28T12:31:21;6.70;48.30
42037;DHT22;30340;52.004;5.908;2023-02-28T12:33:52;6.60;50.60
42037;DHT22;30340;52.004;5.908;2023-02-28T12:36:20;6.60;49.10
42037;DHT22;30340;52.004;5.908;2023-02-28T12:44:28;6.80;49.60
42037;DHT22;30340;52.004;5.908;2023-02-28T12:47:00;6.90;49.40
42037;DHT22;30340;52.004;5.908;2023-02-28T12:49:52;6.80;48.10
42037;DHT22;30340;52.004;5.908;2023-02-28T12:55:44;7.30;48.70
42037;DHT22;30340;52.004;5.908;2023-02-28T12:58:35;7.40;50.40
42037;DHT22;30340;52.004;5.908;2023-02-28T13:09:15;7.50;46.70
42037;DHT22;30340;52.004;5.908;2023-02-28T13:11:44;7.40;46.30
42037;DHT22;30340;52.004;5.908;2023-02-28T13:14:38;7.30;46.50
42037;DHT22;30340;52.004;5.908;2023-02-28T13:19:37;7.40;46.70
42037;DHT22;30340;52.004;5.908;2023-02-28T13:22:03;7.40;47.80
42037;DHT22;30340;52.004;5.908;2023-02-28T13:24:42;7.50;46.90
42037;DHT22;30340;52.004;5.908;2023-02-28T13:29:39;7.60;47.10
42037;DHT22;30340;52.004;5.908;2023-02-28T13:35:34;7.80;46.10
42037;DHT22;30340;52.004;5.908;2023-02-28T13:39:55;7.70;45.90
42037;DHT22;30340;52.004;5.908;2023-02-28T13:48:14;8.00;47.90
42037;DHT22;30340;52.004;5.908;2023-02-28T13:53:03;8.00;46.40
42037;DHT22;30340;52.004;5.908;2023-02-28T13:55:38;7.90;46.90
42037;DHT22;30340;52.004;5.908;2023-02-28T13:58:21;7.90;46.70
42037;DHT22;30340;52.004;5.908;2023-02-28T14:06:22;8.20;48.50
42037;DHT22;30340;52.004;5.908;2023-02-28T14:09:23;8.20;47.50
42037;DHT22;30340;52.004;5.908;2023-02-28T14:11:50;8.10;47.40
42037;DHT22;30340;52.004;5.908;2023-02-28T14:17:01;8.20;47.30
42037;DHT22;30340;52.004;5.908;2023-02-28T14:19:30;8.20;47.00
42037;DHT22;30340;52.004;5.908;2023-02-28T14:31:14;8.10;45.40
42037;DHT22;30340;52.004;5.908;2023-02-28T14:33:57;7.90;46.60
42037;DHT22;30340;52.004;5.908;2023-02-28T14:36:30;8.10;48.20
42037;DHT22;30340;52.004;5.908;2023-02-28T14:39:00;8.50;48.70
42037;DHT22;30340;52.004;5.908;2023-02-28T14:41:32;8.30;45.10
42037;DHT22;30340;52.004;5.908;2023-02-28T14:44:01;8.20;46.20
42037;DHT22;30340;52.004;5.908;2023-02-28T14:46:39;8.20;48.10
42037;DHT22;30340;52.004;5.908;2023-02-28T14:49:07;8.10;47.40
42037;DHT22;30340;52.004;5.908;2023-02-28T14:51:37;8.00;45.70
42037;DHT22;30340;52.004;5.908;2023-02-28T14:54:03;7.80;46.30
42037;DHT22;30340;52.004;5.908;2023-02-28T14:56:39;7.80;46.10
42037;DHT22;30340;52.004;5.908;2023-02-28T14:59:18;7.80;47.90
42037;DHT22;30340;52.004;5.908;2023-02-28T15:01:47;7.90;48.40
42037;DHT22;30340;52.004;5.908;2023-02-28T15:04:25;8.00;47.30
42037;DHT22;30340;52.004;5.908;2023-02-28T15:07:13;8.00;47.70
42037;DHT22;30340;52.004;5.908;2023-02-28T15:09:40;8.00;48.00
42037;DHT22;30340;52.004;5.908;2023-02-28T15:12:13;7.90;45.10
42037;DHT22;30340;52.004;5.908;2023-02-28T15:14:42;7.80;46.60
42037;DHT22;30340;52.004;5.908;2023-02-28T15:17:21;7.80;47.10
42037;DHT22;30340;52.004;5.908;2023-02-28T15:19:51;7.80;47.40
42037;DHT22;30340;52.004;5.908;2023-02-28T15:22:23;7.80;46.50
42037;DHT22;30340;52.004;5.908;2023-02-28T15:24:54;7.70;47.30
42037;DHT22;30340;52.004;5.908;2023-02-28T15:27:24;7.70;47.60
42037;DHT22;30340;52.004;5.908;2023-02-28T15:29:54;7.80;48.60
42037;DHT22;30340;52.004;5.908;2023-02-28T15:34:49;7.70;47.70
42037;DHT22;30340;52.004;5.908;2023-02-28T15:37:45;7.70;47.60
42037;DHT22;30340;52.004;5.908;2023-02-28T15:40:17;7.60;47.30
42037;DHT22;30340;52.004;5.908;2023-02-28T15:43:11;7.60;48.50
42037;DHT22;30340;52.004;5.908;2023-02-28T15:46:00;7.50;45.30
42037;DHT22;30340;52.004;5.908;2023-02-28T15:48:46;7.30;47.30
42037;DHT22;30340;52.004;5.908;2023-02-28T15:51:33;7.30;47.60
42037;DHT22;30340;52.004;5.908;2023-02-28T15:54:22;7.40;49.00
42037;DHT22;30340;52.004;5.908;2023-02-28T15:56:51;7.30;47.10
42037;DHT22;30340;52.004;5.908;2023-02-28T15:59:24;7.20;48.70
42037;DHT22;30340;52.004;5.908;2023-02-28T16:02:11;7.20;48.40
42037;DHT22;30340;52.004;5.908;2023-02-28T16:07:38;7.10;47.80
42037;DHT22;30340;52.004;5.908;2023-02-28T16:10:03;7.10;49.10
42037;DHT22;30340;52.004;5.908;2023-02-28T16:12:32;7.00;49.30
42037;DHT22;30340;52.004;5.908;2023-02-28T16:15:00;7.00;49.50
42037;DHT22;30340;52.004;5.908;2023-02-28T16:17:31;7.10;49.60
42037;DHT22;30340;52.004;5.908;2023-02-28T16:19:59;7.00;49.50
42037;DHT22;30340;52.004;5.908;2023-02-28T16:22:24;7.00;49.80
42037;DHT22;30340;52.004;5.908;2023-02-28T16:24:50;7.00;48.20
42037;DHT22;30340;52.004;5.908;2023-02-28T16:27:21;6.90;48.50
42037;DHT22;30340;52.004;5.908;2023-02-28T16:29:50;6.90;49.60
42037;DHT22;30340;52.004;5.908;2023-02-28T16:32:16;6.80;48.70
42037;DHT22;30340;52.004;5.908;2023-02-28T16:34:43;6.80;49.50
42037;DHT22;30340;52.004;5.908;2023-02-28T16:37:14;6.70;50.10
42037;DHT22;30340;52.004;5.908;2023-02-28T16:39:41;6.70;50.70
42037;DHT22;30340;52.004;5.908;2023-02-28T16:42:24;6.80;51.20
42037;DHT22;30340;52.004;5.908;2023-02-28T16:44:51;6.80;51.00
42037;DHT22;30340;52.004;5.908;2023-02-28T16:47:17;6.80;51.40
42037;DHT22;30340;52.004;5.908;2023-02-28T16:49:43;6.80;51.00
42037;DHT22;30340;52.004;5.908;2023-02-28T16:52:09;6.70;51.70
42037;DHT22;30340;52.004;5.908;2023-02-28T16:54:37;6.70;52.20
42037;DHT22;30340;52.004;5.908;2023-02-28T16:57:03;6.70;52.70
42037;DHT22;30340;52.004;5.908;2023-02-28T16:59:29;6.80;52.10
42037;DHT22;30340;52.004;5.908;2023-02-28T17:01:56;6.70;52.80
42037;DHT22;30340;52.004;5.908;2023-02-28T17:04:27;6.70;53.30
42037;DHT22;30340;52.004;5.908;2023-02-28T17:06:53;6.70;53.50
42037;DHT22;30340;52.004;5.908;2023-02-28T17:09:22;6.70;53.60
42037;DHT22;30340;52.004;5.908;2023-02-28T17:11:48;6.70;53.80
42037;DHT22;30340;52.004;5.908;2023-02-28T17:14:14;6.70;54.00
42037;DHT22;30340;52.004;5.908;2023-02-28T17:16:40;6.70;54.30
42037;DHT22;30340;52.004;5.908;2023-02-28T17:19:11;6.60;53.80
42037;DHT22;30340;52.004;5.908;2023-02-28T17:21:38;6.50;54.40
42037;DHT22;30340;52.004;5.908;2023-02-28T17:24:04;6.50;54.30
42037;DHT22;30340;52.004;5.908;2023-02-28T17:26:30;6.40;54.70
42037;DHT22;30340;52.004;5.908;2023-02-28T17:28:56;6.40;54.90
42037;DHT22;30340;52.004;5.908;2023-02-28T17:31:24;6.40;55.30
42037;DHT22;30340;52.004;5.908;2023-02-28T17:33:50;6.30;55.30
42037;DHT22;30340;52.004;5.908;2023-02-28T17:36:22;6.30;55.30
42037;DHT22;30340;52.004;5.908;2023-02-28T17:38:48;6.30;55.40
42037;DHT22;30340;52.004;5.908;2023-02-28T17:41:14;6.20;55.60
42037;DHT22;30340;52.004;5.908;2023-02-28T17:43:40;6.20;55.70
42037;DHT22;30340;52.004;5.908;2023-02-28T17:46:14;6.10;55.90
42037;DHT22;30340;52.004;5.908;2023-02-28T17:48:40;6.10;56.20
42037;DHT22;30340;52.004;5.908;2023-02-28T17:51:07;6.00;56.00
42037;DHT22;30340;52.004;5.908;2023-02-28T17:53:33;6.00;56.20
42037;DHT22;30340;52.004;5.908;2023-02-28T17:55:59;6.00;56.10
42037;DHT22;30340;52.004;5.908;2023-02-28T17:58:25;5.90;56.30
42037;DHT22;30340;52.004;5.908;2023-02-28T18:00:50;5.90;56.10
42037;DHT22;30340;52.004;5.908;2023-02-28T18:03:19;5.80;56.40
42037;DHT22;30340;52.004;5.908;2023-02-28T18:05:46;5.80;56.70
42037;DHT22;30340;52.004;5.908;2023-02-28T18:08:12;5.80;57.20
42037;DHT22;30340;52.004;5.908;2023-02-28T18:10:38;5.70;56.70
42037;DHT22;30340;52.004;5.908;2023-02-28T18:13:04;5.70;56.90
42037;DHT22;30340;52.004;5.908;2023-02-28T18:15:30;5.70;57.00
42037;DHT22;30340;52.004;5.908;2023-02-28T18:17:56;5.70;57.10
42037;DHT22;30340;52.004;5.908;2023-02-28T18:20:21;5.70;57.10
42037;DHT22;30340;52.004;5.908;2023-02-28T18:22:47;5.70;57.20